createdAt,value
2023-02-14T00:01:23.110Z,4.09
2023-02-14T00:03:28.737Z,4.07
2023-02-14T00:05:34.068Z,4.07
2023-02-14T00:07:39.315Z,4.07
2023-02-14T00:09:44.578Z,4.07
2023-02-14T00:11:50.182Z,4.07
2023-02-14T00:13:55.551Z,4.11
2023-02-14T00:16:00.991Z,4.09
2023-02-14T00:18:06.887Z,4.09
2023-02-14T00:20:12.084Z,4.08
2023-02-14T00:22:17.422Z,4.07
2023-02-14T00:24:22.815Z,4.05
2023-02-14T00:26:28.199Z,4.04
2023-02-14T00:28:33.701Z,4.06
2023-02-14T00:30:39.215Z,4.05
2023-02-14T00:32:44.786Z,4.03
2023-02-14T00:34:50.124Z,4.01
2023-02-14T00:36:55.484Z,4.01
2023-02-14T00:39:00.813Z,4.01
2023-02-14T00:41:06.212Z,4.01
2023-02-14T00:43:11.388Z,4.01
2023-02-14T00:45:16.668Z,4
2023-02-14T00:47:22.142Z,4
2023-02-14T00:49:27.403Z,3.99
2023-02-14T00:51:32.688Z,3.98
2023-02-14T00:53:37.870Z,3.95
2023-02-14T00:55:43.065Z,3.97
2023-02-14T00:57:48.289Z,3.96
2023-02-14T00:59:53.635Z,3.96
2023-02-14T01:01:58.843Z,3.96
2023-02-14T01:04:04.006Z,3.92
2023-02-14T01:06:09.590Z,3.91
2023-02-14T01:08:15.089Z,3.89
2023-02-14T01:10:20.506Z,3.88
2023-02-14T01:12:25.735Z,3.87
2023-02-14T01:14:31.015Z,3.86
2023-02-14T01:16:36.673Z,3.84
2023-02-14T01:18:42.726Z,3.84
2023-02-14T01:20:48.124Z,3.85
2023-02-14T01:22:53.463Z,3.83
2023-02-14T01:24:58.709Z,3.81
2023-02-14T01:27:04.644Z,3.82
2023-02-14T01:29:10.107Z,3.79
2023-02-14T01:31:15.683Z,3.76
2023-02-14T01:33:21.650Z,3.73
2023-02-14T01:35:26.975Z,3.73
2023-02-14T01:37:32.625Z,3.72
2023-02-14T01:39:37.818Z,3.7
2023-02-14T01:41:43.239Z,3.7
2023-02-14T01:43:48.588Z,3.69
2023-02-14T01:45:54.088Z,3.68
2023-02-14T01:47:59.703Z,3.67
2023-02-14T01:50:04.960Z,3.67
2023-02-14T01:52:10.453Z,3.68
2023-02-14T01:54:15.799Z,3.64
2023-02-14T01:56:21.138Z,3.63
2023-02-14T01:58:26.346Z,3.62
2023-02-14T02:00:31.694Z,3.6
2023-02-14T02:02:36.796Z,3.6
2023-02-14T02:04:43.330Z,3.6
2023-02-14T02:06:48.885Z,3.57
2023-02-14T02:08:54.151Z,3.55
2023-02-14T02:10:59.518Z,3.53
2023-02-14T02:13:05.766Z,3.53
2023-02-14T02:15:14.177Z,3.51
2023-02-14T02:17:19.463Z,3.51
2023-02-14T02:22:14.687Z,3.48
2023-02-14T02:24:19.665Z,3.47
2023-02-14T02:26:25.121Z,3.47
2023-02-14T02:28:30.595Z,3.44
2023-02-14T02:30:36.078Z,3.42
2023-02-14T02:32:43.185Z,3.43
2023-02-14T02:34:48.613Z,3.42
2023-02-14T02:36:53.927Z,3.42
2023-02-14T02:38:59.294Z,3.41
2023-02-14T02:41:04.810Z,3.38
2023-02-14T02:43:10.880Z,3.35
2023-02-14T02:45:16.186Z,3.35
2023-02-14T02:47:21.386Z,3.36
2023-02-14T02:49:26.750Z,3.34
2023-02-14T02:51:31.893Z,3.32
2023-02-14T02:53:36.985Z,3.31
2023-02-14T02:55:42.526Z,3.3
2023-02-14T02:57:47.876Z,3.3
2023-02-14T02:59:54.296Z,3.28
2023-02-14T03:01:59.614Z,3.26
2023-02-14T03:04:04.890Z,3.25
2023-02-14T03:06:10.354Z,3.26
2023-02-14T03:08:15.513Z,3.24
2023-02-14T03:10:21.060Z,3.25
2023-02-14T03:12:26.373Z,3.24
2023-02-14T03:14:31.565Z,3.22
2023-02-14T03:16:36.994Z,3.22
2023-02-14T03:18:42.381Z,3.21
2023-02-14T03:20:47.509Z,3.19
2023-02-14T03:22:52.818Z,3.18
2023-02-14T03:24:58.055Z,3.17
2023-02-14T03:27:03.450Z,3.16
2023-02-14T03:29:08.451Z,3.15
2023-02-14T03:31:13.829Z,3.15
2023-02-14T03:33:19.496Z,3.14
2023-02-14T03:35:24.654Z,3.13
2023-02-14T03:37:29.671Z,3.12
2023-02-14T03:39:35.200Z,3.12
2023-02-14T03:41:40.214Z,3.12
2023-02-14T03:43:45.809Z,3.1
2023-02-14T03:45:51.216Z,3.08
2023-02-14T03:47:56.340Z,3.06
2023-02-14T03:50:01.879Z,3.03
2023-02-14T03:52:07.373Z,3.02
2023-02-14T03:54:12.690Z,3.02
2023-02-14T03:56:17.828Z,3.01
2023-02-14T03:58:22.973Z,3
2023-02-14T04:00:28.466Z,2.97
2023-02-14T04:02:33.504Z,2.99
2023-02-14T04:04:39.784Z,2.97
2023-02-14T04:06:44.975Z,2.96
2023-02-14T04:08:50.142Z,2.95
2023-02-14T04:10:56.993Z,2.96
2023-02-14T04:13:04.314Z,2.94
2023-02-14T04:15:09.711Z,2.92
2023-02-14T04:17:14.889Z,2.9
2023-02-14T04:19:19.845Z,2.88
2023-02-14T04:21:25.471Z,2.86
2023-02-14T04:23:31.130Z,2.85
2023-02-14T04:25:36.309Z,2.84
2023-02-14T04:27:41.407Z,2.82
2023-02-14T04:29:47.239Z,2.83
2023-02-14T04:31:53.058Z,2.82
2023-02-14T04:33:58.879Z,2.81
2023-02-14T04:36:04.125Z,2.81
2023-02-14T04:38:09.786Z,2.79
2023-02-14T04:40:15.185Z,2.78
2023-02-14T04:42:20.385Z,2.77
2023-02-14T04:44:25.895Z,2.77
2023-02-14T04:46:30.903Z,2.75
2023-02-14T04:48:37.181Z,2.75
2023-02-14T04:50:42.475Z,2.72
2023-02-14T04:52:47.661Z,2.73
2023-02-14T04:54:53.025Z,2.71
2023-02-14T04:56:59.389Z,2.71
2023-02-14T04:59:04.857Z,2.71
2023-02-14T05:01:10.747Z,2.69
2023-02-14T05:03:19.531Z,2.71
2023-02-14T05:05:24.846Z,2.69
2023-02-14T05:07:29.817Z,2.68
2023-02-14T05:09:35.095Z,2.67
2023-02-14T05:11:40.600Z,2.65
2023-02-14T05:13:45.763Z,2.64
2023-02-14T05:15:51.077Z,2.65
2023-02-14T05:17:56.399Z,2.61
2023-02-14T05:20:01.735Z,2.62
2023-02-14T05:22:07.207Z,2.59
2023-02-14T05:24:12.563Z,2.6
2023-02-14T05:26:17.872Z,2.58
2023-02-14T05:28:22.992Z,2.59
2023-02-14T05:30:28.520Z,2.56
2023-02-14T05:32:34.501Z,2.55
2023-02-14T05:34:40.747Z,2.54
2023-02-14T05:36:46.435Z,2.53
2023-02-14T05:38:51.759Z,2.52
2023-02-14T05:44:01.614Z,2.52
2023-02-14T05:46:06.799Z,2.5
2023-02-14T05:48:12.303Z,2.5
2023-02-14T05:50:17.682Z,2.52
2023-02-14T05:52:22.974Z,2.51
2023-02-14T05:54:28.776Z,2.5
2023-02-14T05:56:34.064Z,2.47
2023-02-14T05:58:39.466Z,2.47
2023-02-14T06:00:44.719Z,2.48
2023-02-14T06:02:50.318Z,2.47
2023-02-14T06:04:55.972Z,2.47
2023-02-14T06:07:01.147Z,2.45
2023-02-14T06:09:06.133Z,2.46
2023-02-14T06:11:11.288Z,2.45
2023-02-14T06:13:16.514Z,2.47
2023-02-14T06:15:21.798Z,2.44
2023-02-14T06:17:27.063Z,2.41
2023-02-14T06:19:32.786Z,2.42
2023-02-14T06:21:37.996Z,2.44
2023-02-14T06:23:43.341Z,2.44
2023-02-14T06:25:48.543Z,2.43
2023-02-14T06:27:53.796Z,2.41
2023-02-14T06:29:59.090Z,2.42
2023-02-14T06:32:05.224Z,2.41
2023-02-14T06:34:11.588Z,2.4
2023-02-14T06:36:19.459Z,2.4
2023-02-14T06:38:25.210Z,2.38
2023-02-14T06:40:30.307Z,2.38
2023-02-14T06:42:35.588Z,2.37
2023-02-14T06:44:41.017Z,2.41
2023-02-14T06:46:46.117Z,2.43
2023-02-14T06:48:52.304Z,2.41
2023-02-14T06:50:58.115Z,2.37
2023-02-14T06:53:04.929Z,2.36
2023-02-14T06:55:10.127Z,2.36
2023-02-14T06:57:15.375Z,2.36
2023-02-14T06:59:21.007Z,2.36
2023-02-14T07:01:25.978Z,2.38
2023-02-14T07:03:31.893Z,2.34
2023-02-14T07:05:37.203Z,2.31
2023-02-14T07:07:42.598Z,2.35
2023-02-14T07:09:47.598Z,2.35
2023-02-14T07:11:53.158Z,2.38
2023-02-14T07:13:59.055Z,2.35
2023-02-14T07:16:04.885Z,2.37
2023-02-14T07:18:10.380Z,2.35
2023-02-14T07:20:15.634Z,2.35
2023-02-14T07:22:20.965Z,2.4
2023-02-14T07:24:26.495Z,2.4
2023-02-14T07:26:31.897Z,2.44
2023-02-14T07:28:37.232Z,2.49
2023-02-14T07:30:42.745Z,2.49
2023-02-14T07:32:48.633Z,2.54
2023-02-14T07:34:53.606Z,2.55
2023-02-14T07:36:59.811Z,2.57
2023-02-14T07:39:05.977Z,2.63
2023-02-14T07:41:11.885Z,2.68
2023-02-14T07:43:18.855Z,2.66
2023-02-14T07:45:25.665Z,2.66
2023-02-14T07:47:31.264Z,2.68
2023-02-14T07:49:36.481Z,2.66
2023-02-14T07:51:41.519Z,2.58
2023-02-14T07:53:46.783Z,2.53
2023-02-14T07:55:52.223Z,2.5
2023-02-14T07:57:57.164Z,2.54
2023-02-14T08:00:02.466Z,2.6
2023-02-14T08:02:07.727Z,2.61
2023-02-14T08:04:13.572Z,2.62
2023-02-14T08:06:19.248Z,2.65
2023-02-14T08:08:24.635Z,2.68
2023-02-14T08:10:30.032Z,2.71
2023-02-14T08:12:35.155Z,2.72
2023-02-14T08:14:41.019Z,2.67
2023-02-14T08:16:47.003Z,2.66
2023-02-14T08:18:52.181Z,2.71
2023-02-14T08:20:57.570Z,2.78
2023-02-14T08:23:04.719Z,2.75
2023-02-14T08:25:10.761Z,2.75
2023-02-14T08:27:16.634Z,2.85
2023-02-14T08:29:21.948Z,2.8
2023-02-14T08:31:34.972Z,2.75
2023-02-14T08:33:41.601Z,2.74
2023-02-14T08:35:47.190Z,2.73
2023-02-14T08:37:53.319Z,2.79
2023-02-14T08:39:59.561Z,2.8
2023-02-14T08:42:06.155Z,2.83
2023-02-14T08:44:13.518Z,2.84
2023-02-14T08:46:20.432Z,2.94
2023-02-14T08:48:27.222Z,2.83
2023-02-14T08:50:33.569Z,2.9
2023-02-14T08:52:39.924Z,3
2023-02-14T08:54:46.545Z,3.07
2023-02-14T08:56:53.679Z,3.16
2023-02-14T08:59:00.127Z,3.11
2023-02-14T09:01:06.613Z,3.01
2023-02-14T09:03:13.367Z,3
2023-02-14T09:05:19.363Z,3.03
2023-02-14T09:07:24.824Z,3.05
2023-02-14T09:09:31.020Z,3.06
2023-02-14T09:11:37.253Z,3.08
2023-02-14T09:13:43.726Z,3.12
2023-02-14T09:15:49.982Z,3.01
2023-02-14T09:17:55.743Z,3.04
2023-02-14T09:20:01.474Z,3.09
2023-02-14T09:22:07.390Z,3.05
2023-02-14T09:24:12.961Z,3.05
2023-02-14T09:26:18.889Z,2.98
2023-02-14T09:28:24.901Z,3.01
2023-02-14T09:30:30.375Z,3.01
2023-02-14T09:32:36.369Z,3.05
2023-02-14T09:34:41.636Z,2.99
2023-02-14T09:36:46.867Z,3.05
2023-02-14T09:38:52.547Z,3.1
2023-02-14T09:40:58.028Z,3.08
2023-02-14T09:43:04.583Z,3.04
2023-02-14T09:45:10.235Z,3
2023-02-14T09:47:15.865Z,3.1
2023-02-14T09:49:21.733Z,3.19
2023-02-14T09:51:27.599Z,3.34
2023-02-14T09:53:32.922Z,3.28
2023-02-14T09:55:39.031Z,3.36
2023-02-14T09:57:44.902Z,3.33
2023-02-14T09:59:50.413Z,3.29
2023-02-14T10:01:56.062Z,3.29
2023-02-14T10:04:01.824Z,3.24
2023-02-14T10:06:07.142Z,3.26
2023-02-14T10:08:12.963Z,3.29
2023-02-14T10:10:18.657Z,3.33
2023-02-14T10:12:24.368Z,3.46
2023-02-14T10:14:29.892Z,3.45
2023-02-14T10:16:35.657Z,3.45
2023-02-14T10:18:41.275Z,3.4
2023-02-14T10:20:46.471Z,3.4
2023-02-14T10:22:52.172Z,3.61
2023-02-14T10:24:58.426Z,3.69
2023-02-14T10:29:23.916Z,3.76
2023-02-14T10:31:29.561Z,3.69
2023-02-14T10:33:36.090Z,3.58
2023-02-14T10:35:42.448Z,3.64
2023-02-14T10:37:47.654Z,3.7
2023-02-14T10:39:53.442Z,3.72
2023-02-14T10:42:01.374Z,3.78
2023-02-14T10:44:06.796Z,3.71
2023-02-14T10:46:12.248Z,3.66
2023-02-14T10:48:21.395Z,3.69
2023-02-14T10:50:28.524Z,3.65
2023-02-14T10:52:34.522Z,3.54
2023-02-14T10:54:40.850Z,3.43
2023-02-14T10:56:47.116Z,3.49
2023-02-14T10:58:53.685Z,3.47
2023-02-14T11:01:00.756Z,3.48
2023-02-14T11:03:07.720Z,3.68
2023-02-14T11:05:13.525Z,3.74
2023-02-14T11:07:19.138Z,3.78
2023-02-14T11:09:25.624Z,3.86
2023-02-14T11:11:31.442Z,3.91
2023-02-14T11:13:38.000Z,3.72
2023-02-14T11:15:44.658Z,3.7
2023-02-14T11:17:51.945Z,3.68
2023-02-14T11:19:58.485Z,3.69
2023-02-14T11:22:04.547Z,3.59
2023-02-14T11:24:10.131Z,3.43
2023-02-14T11:26:15.619Z,3.39
2023-02-14T11:28:21.112Z,3.45
2023-02-14T11:30:26.388Z,3.49
2023-02-14T11:32:32.558Z,3.68
2023-02-14T11:34:38.373Z,3.69
2023-02-14T11:36:45.418Z,3.69
2023-02-14T11:38:52.084Z,3.62
2023-02-14T11:40:59.146Z,3.61
2023-02-14T11:43:13.740Z,3.59
2023-02-14T11:45:20.802Z,3.68
2023-02-14T11:47:26.093Z,3.71
2023-02-14T11:49:31.992Z,3.92
2023-02-14T11:51:38.138Z,3.98
2023-02-14T11:53:44.012Z,3.92
2023-02-14T11:55:49.853Z,3.89
2023-02-14T11:57:55.400Z,3.97
2023-02-14T12:00:01.402Z,3.92
2023-02-14T12:02:06.726Z,3.94
2023-02-14T12:04:12.632Z,3.72
2023-02-14T12:06:18.649Z,3.68
2023-02-14T12:08:24.854Z,3.62
2023-02-14T12:10:31.317Z,3.71
2023-02-14T12:12:37.358Z,3.6
2023-02-14T12:14:43.651Z,3.47
2023-02-14T12:16:49.066Z,3.55
2023-02-14T12:18:55.994Z,3.65
2023-02-14T12:21:02.913Z,3.72
2023-02-14T12:23:09.348Z,3.71
2023-02-14T12:25:16.227Z,3.81
2023-02-14T12:27:24.096Z,3.71
2023-02-14T12:29:30.347Z,3.62
2023-02-14T12:31:35.963Z,3.58
2023-02-14T12:33:42.955Z,3.67
2023-02-14T12:35:55.159Z,3.63
2023-02-14T12:38:04.848Z,3.6
2023-02-14T12:40:10.455Z,3.62
2023-02-14T12:42:15.989Z,3.56
2023-02-14T12:44:22.545Z,3.64
2023-02-14T12:46:29.674Z,3.58
2023-02-14T12:48:35.980Z,3.54
2023-02-14T12:50:42.616Z,3.65
2023-02-14T12:52:48.850Z,3.61
2023-02-14T12:54:55.166Z,3.62
2023-02-14T12:57:02.485Z,3.49
2023-02-14T12:59:09.611Z,3.54
2023-02-14T13:01:24.608Z,3.54
2023-02-14T13:03:44.276Z,3.64
2023-02-14T13:05:50.560Z,3.69
2023-02-14T13:07:55.980Z,3.8
2023-02-14T13:10:01.334Z,3.87
2023-02-14T13:12:06.503Z,3.85
2023-02-14T13:14:11.846Z,3.83
2023-02-14T13:16:17.648Z,3.86
2023-02-14T13:18:23.922Z,3.9
2023-02-14T13:20:29.646Z,3.92
2023-02-14T13:22:35.446Z,3.93
2023-02-14T13:24:41.631Z,3.97
2023-02-14T13:26:47.121Z,4.07
2023-02-14T13:28:53.365Z,4.14
2023-02-14T13:31:00.789Z,4.14
2023-02-14T13:33:08.483Z,4.02
2023-02-14T13:35:15.026Z,4.08
2023-02-14T13:37:20.379Z,4
2023-02-14T13:39:25.507Z,4.02
2023-02-14T13:41:32.758Z,4.03
2023-02-14T13:43:41.838Z,3.98
2023-02-14T13:45:47.395Z,4.02
2023-02-14T13:47:54.032Z,3.96
2023-02-14T13:50:00.642Z,3.9
2023-02-14T13:52:06.731Z,3.87
2023-02-14T13:54:11.979Z,3.84
2023-02-14T13:56:20.299Z,3.74
2023-02-14T13:58:26.080Z,3.71
2023-02-14T14:00:31.718Z,3.74
2023-02-14T14:02:38.315Z,3.7
2023-02-14T14:04:44.600Z,3.69
2023-02-14T14:06:50.841Z,3.62
2023-02-14T14:08:57.194Z,3.6
2023-02-14T14:11:03.299Z,3.64
2023-02-14T14:13:09.512Z,3.71
2023-02-14T14:15:14.568Z,3.77
2023-02-14T14:17:19.860Z,3.82
2023-02-14T14:19:25.699Z,3.86
2023-02-14T14:21:31.628Z,3.78
2023-02-14T14:23:37.654Z,3.77
2023-02-14T14:25:42.926Z,3.77
2023-02-14T14:27:48.220Z,3.73
2023-02-14T14:29:53.518Z,3.72
2023-02-14T14:31:59.221Z,3.68
2023-02-14T14:34:07.493Z,3.7
2023-02-14T14:36:13.581Z,3.68
2023-02-14T14:38:18.909Z,3.68
2023-02-14T14:40:24.325Z,3.7
2023-02-14T14:42:30.227Z,3.7
2023-02-14T14:44:35.531Z,3.71
2023-02-14T14:46:40.707Z,3.72
2023-02-14T14:48:46.060Z,3.65
2023-02-14T14:50:51.369Z,3.63
2023-02-14T14:52:57.355Z,3.64
2023-02-14T14:55:05.092Z,3.62
2023-02-14T14:57:10.163Z,3.61
2023-02-14T14:59:15.554Z,3.61
2023-02-14T15:01:21.466Z,3.61
2023-02-14T15:03:27.252Z,3.57
2023-02-14T15:05:33.684Z,3.55
2023-02-14T15:07:39.249Z,3.55
2023-02-14T15:09:45.005Z,3.53
2023-02-14T15:11:51.696Z,3.53
2023-02-14T15:13:58.274Z,3.53
2023-02-14T15:16:04.237Z,3.53
2023-02-14T15:18:10.833Z,3.54
2023-02-14T15:20:16.311Z,3.55
2023-02-14T15:22:22.203Z,3.55
2023-02-14T15:24:29.286Z,3.53
2023-02-14T15:26:35.874Z,3.5
2023-02-14T15:28:41.324Z,3.51
2023-02-14T15:30:46.866Z,3.49
2023-02-14T15:32:53.316Z,3.51
2023-02-14T15:34:58.862Z,3.48
2023-02-14T15:37:05.345Z,3.47
2023-02-14T15:39:12.473Z,3.48
2023-02-14T15:41:18.065Z,3.47
2023-02-14T15:43:23.225Z,3.45
2023-02-14T15:45:29.164Z,3.42
2023-02-14T15:47:36.403Z,3.42
2023-02-14T15:49:43.764Z,3.43
2023-02-14T15:51:51.008Z,3.41
2023-02-14T15:53:56.675Z,3.4
2023-02-14T15:56:03.936Z,3.39
2023-02-14T15:58:09.858Z,3.37
2023-02-14T16:00:16.817Z,3.37
2023-02-14T16:02:23.440Z,3.36
2023-02-14T16:04:30.028Z,3.34
2023-02-14T16:06:39.094Z,3.35
2023-02-14T16:08:45.881Z,3.36
2023-02-14T16:10:53.097Z,3.35
2023-02-14T16:13:00.976Z,3.35
2023-02-14T16:15:07.850Z,3.33
2023-02-14T16:17:16.595Z,3.34
2023-02-14T16:19:23.083Z,3.37
2023-02-14T16:21:30.102Z,3.35
2023-02-14T16:23:37.192Z,3.34
2023-02-14T16:25:48.045Z,3.34
2023-02-14T16:27:56.245Z,3.34
2023-02-14T16:30:04.986Z,3.33
2023-02-14T16:32:15.956Z,3.36
2023-02-14T16:34:24.079Z,3.34
2023-02-14T16:36:32.660Z,3.35
2023-02-14T16:38:40.436Z,3.35
2023-02-14T16:40:49.524Z,3.34
2023-02-14T16:42:57.509Z,3.34
2023-02-14T16:45:05.275Z,3.31
2023-02-14T16:47:13.007Z,3.31
2023-02-14T16:49:19.547Z,3.32
2023-02-14T16:51:24.950Z,3.32
2023-02-14T16:53:32.156Z,3.32
2023-02-14T16:55:41.628Z,3.32
2023-02-14T16:57:50.621Z,3.31
2023-02-14T17:00:00.418Z,3.31
2023-02-14T17:02:10.533Z,3.31
2023-02-14T17:04:17.151Z,3.33
2023-02-14T17:06:27.905Z,3.33
2023-02-14T17:08:40.539Z,3.34
2023-02-14T17:10:47.617Z,3.32
2023-02-14T17:12:55.774Z,3.32
2023-02-14T17:15:03.299Z,3.31
2023-02-14T17:17:10.740Z,3.31
2023-02-14T17:19:19.175Z,3.31
2023-02-14T17:21:26.598Z,3.32
2023-02-14T17:23:39.529Z,3.33
2023-02-14T17:25:50.405Z,3.33
2023-02-14T17:28:01.104Z,3.32
2023-02-14T17:30:08.185Z,3.33
2023-02-14T17:32:14.992Z,3.34
2023-02-14T17:34:24.233Z,3.33
2023-02-14T17:36:32.450Z,3.34
2023-02-14T17:38:39.765Z,3.32
2023-02-14T17:40:51.122Z,3.33
2023-02-14T17:42:58.854Z,3.32
2023-02-14T17:45:06.830Z,3.32
2023-02-14T17:47:21.700Z,3.32
2023-02-14T17:49:34.463Z,3.34
2023-02-14T17:51:43.956Z,3.33
2023-02-14T17:53:53.033Z,3.33
2023-02-14T17:56:03.205Z,3.32
2023-02-14T17:58:16.411Z,3.3
2023-02-14T18:00:26.080Z,3.29
2023-02-14T18:02:36.037Z,3.26
2023-02-14T18:04:48.139Z,3.27
2023-02-14T18:06:57.690Z,3.27
2023-02-14T18:09:05.761Z,3.27
2023-02-14T18:11:19.244Z,3.28
2023-02-14T18:13:31.400Z,3.29
2023-02-14T18:15:44.385Z,3.29
2023-02-14T18:17:56.169Z,3.29
2023-02-14T18:20:06.110Z,3.28
2023-02-14T18:22:15.702Z,3.27
2023-02-14T18:24:26.649Z,3.26
2023-02-14T18:26:34.253Z,3.23
2023-02-14T18:28:45.524Z,3.25
2023-02-14T18:30:54.383Z,3.26
2023-02-14T18:33:03.571Z,3.26
2023-02-14T18:35:13.021Z,3.25
2023-02-14T18:37:23.820Z,3.26
2023-02-14T18:39:39.652Z,3.28
2023-02-14T18:42:00.341Z,3.28
2023-02-14T18:44:12.796Z,3.29
2023-02-14T18:46:24.390Z,3.3
2023-02-14T18:48:35.602Z,3.32
2023-02-14T18:50:52.912Z,3.32
2023-02-14T18:53:12.865Z,3.33
2023-02-14T18:55:21.550Z,3.36
2023-02-14T18:57:36.097Z,3.34
2023-02-14T18:59:47.975Z,3.34
2023-02-14T19:02:04.664Z,3.35
2023-02-14T19:04:14.735Z,3.34
2023-02-14T19:06:23.500Z,3.34
2023-02-14T19:08:36.745Z,3.32
2023-02-14T19:10:44.753Z,3.33
2023-02-14T19:12:54.162Z,3.32
2023-02-14T19:15:08.458Z,3.3
2023-02-14T19:17:25.228Z,3.3
2023-02-14T19:19:34.558Z,3.31
2023-02-14T19:21:47.660Z,3.29
2023-02-14T19:24:00.299Z,3.29
2023-02-14T19:26:12.318Z,3.29
2023-02-14T19:28:22.732Z,3.29
2023-02-14T19:30:33.205Z,3.28
2023-02-14T19:32:49.381Z,3.25
2023-02-14T19:34:59.041Z,3.23
2023-02-14T19:37:07.180Z,3.2
2023-02-14T19:39:14.918Z,3.18
2023-02-14T19:41:25.980Z,3.15
2023-02-14T19:43:34.085Z,3.15
2023-02-14T19:45:43.849Z,3.16
2023-02-14T19:47:59.075Z,3.15
2023-02-14T19:50:07.495Z,3.15
2023-02-14T19:52:26.186Z,3.16
2023-02-14T19:54:40.026Z,3.17
2023-02-14T19:56:52.711Z,3.16
2023-02-14T19:59:05.776Z,3.15
2023-02-14T20:01:14.874Z,3.13
2023-02-14T20:03:39.908Z,3.13
2023-02-14T20:05:48.243Z,3.12
2023-02-14T20:08:05.278Z,3.11
2023-02-14T20:10:16.158Z,3.09
2023-02-14T20:12:26.614Z,3.06
2023-02-14T20:14:47.072Z,3.05
2023-02-14T20:17:04.000Z,3.06
2023-02-14T20:19:13.377Z,3.06
2023-02-14T20:21:26.892Z,3.07
2023-02-14T20:23:41.355Z,3.05
2023-02-14T20:25:52.858Z,3.04
2023-02-14T20:28:05.756Z,3.02
2023-02-14T20:30:16.951Z,3.03
2023-02-14T20:32:32.202Z,3.06
2023-02-14T20:34:49.808Z,3.08
2023-02-14T20:37:00.629Z,3.08
2023-02-14T20:39:12.531Z,3.09
2023-02-14T20:41:21.666Z,3.08
2023-02-14T20:43:37.293Z,3.08
2023-02-14T20:45:51.135Z,3.07
2023-02-14T20:48:02.325Z,3.06
2023-02-14T20:50:17.291Z,3.06
2023-02-14T20:52:26.480Z,3.06
2023-02-14T20:54:38.692Z,3.07
2023-02-14T20:56:57.453Z,3.09
2023-02-14T20:59:14.125Z,3.08
2023-02-14T21:01:21.928Z,3.1
2023-02-14T21:03:36.302Z,3.1
2023-02-14T21:05:45.562Z,3.13
2023-02-14T21:07:55.320Z,3.12
2023-02-14T21:10:14.630Z,3.12
2023-02-14T21:12:29.296Z,3.13
2023-02-14T21:14:41.634Z,3.13
2023-02-14T21:16:51.489Z,3.13
2023-02-14T21:19:04.178Z,3.12
2023-02-14T21:21:13.757Z,3.13
2023-02-14T21:23:23.064Z,3.14
2023-02-14T21:25:33.772Z,3.13
2023-02-14T21:27:52.081Z,3.12
2023-02-14T21:30:05.645Z,3.1
2023-02-14T21:32:17.709Z,3.1
2023-02-14T21:34:28.712Z,3.1
2023-02-14T21:36:37.332Z,3.11
2023-02-14T21:38:50.459Z,3.11
2023-02-14T21:41:01.621Z,3.1
2023-02-14T21:43:10.826Z,3.1
2023-02-14T21:45:23.068Z,3.08
2023-02-14T21:47:32.338Z,3.07
2023-02-14T21:49:40.191Z,3.08
2023-02-14T21:51:50.569Z,3.09
2023-02-14T21:54:01.622Z,3.1
2023-02-14T21:56:09.246Z,3.08
2023-02-14T21:58:20.507Z,3.07
2023-02-14T22:00:28.107Z,3.05
2023-02-14T22:02:35.518Z,3.05
2023-02-14T22:04:44.124Z,3.05
2023-02-14T22:06:52.010Z,3.03
2023-02-14T22:08:58.514Z,3.02
2023-02-14T22:11:04.681Z,3.02
2023-02-14T22:13:10.854Z,3.01
2023-02-14T22:15:17.214Z,3
2023-02-14T22:17:22.851Z,3
2023-02-14T22:19:28.867Z,2.99
2023-02-14T22:21:34.562Z,2.99
2023-02-14T22:23:40.587Z,2.98
2023-02-14T22:25:46.514Z,2.95
2023-02-14T22:27:51.896Z,2.96
2023-02-14T22:29:57.209Z,2.97
2023-02-14T22:32:02.929Z,2.96
2023-02-14T22:34:08.792Z,2.95
2023-02-14T22:36:13.934Z,2.95
2023-02-14T22:38:19.359Z,2.94
2023-02-14T22:40:24.643Z,2.95
2023-02-14T22:42:29.860Z,2.94
2023-02-14T22:44:35.336Z,2.96
2023-02-14T22:46:40.908Z,2.95
2023-02-14T22:48:46.434Z,2.96
2023-02-14T22:50:51.678Z,2.94
2023-02-14T22:52:57.121Z,2.92
2023-02-14T22:55:02.206Z,2.91
2023-02-14T22:57:07.589Z,2.92
2023-02-14T22:59:12.741Z,2.92
2023-02-14T23:01:17.992Z,2.93
2023-02-14T23:03:23.196Z,2.91
2023-02-14T23:05:29.084Z,2.92
2023-02-14T23:07:34.139Z,2.92
2023-02-14T23:09:39.158Z,2.93
2023-02-14T23:11:44.613Z,2.91
2023-02-14T23:13:49.834Z,2.9
2023-02-14T23:15:55.146Z,2.91
2023-02-14T23:18:00.895Z,2.91
2023-02-14T23:20:06.228Z,2.91
2023-02-14T23:22:11.288Z,2.89
2023-02-14T23:24:17.665Z,2.89
2023-02-14T23:26:22.714Z,2.89
2023-02-14T23:28:27.851Z,2.88
2023-02-14T23:30:32.764Z,2.87
2023-02-14T23:32:37.990Z,2.88
2023-02-14T23:34:43.339Z,2.87
2023-02-14T23:36:48.544Z,2.88
2023-02-14T23:38:56.744Z,2.86
2023-02-14T23:41:01.773Z,2.87
2023-02-14T23:43:06.762Z,2.86
2023-02-14T23:45:11.813Z,2.85
2023-02-14T23:47:17.134Z,2.84
2023-02-14T23:49:22.194Z,2.82
2023-02-14T23:51:27.262Z,2.81
2023-02-14T23:53:32.404Z,2.82
2023-02-14T23:55:37.468Z,2.82
2023-02-14T23:57:42.595Z,2.81
2023-02-14T23:59:47.744Z,2.82
